createdAt,value
2019-01-24T00:00:34.054Z,0.61
2019-01-24T00:03:01.520Z,0.68
2019-01-24T00:05:28.936Z,0.63
2019-01-24T00:07:56.393Z,0.68
2019-01-24T00:10:23.850Z,0.58
2019-01-24T00:12:51.301Z,0.55
2019-01-24T00:15:18.745Z,0.60
2019-01-24T00:17:46.168Z,0.68
2019-01-24T00:20:13.612Z,0.65
2019-01-24T00:22:41.073Z,0.58
2019-01-24T00:25:08.560Z,0.63
2019-01-24T00:27:35.998Z,0.62
2019-01-24T00:30:03.449Z,0.58
2019-01-24T00:32:30.993Z,0.55
2019-01-24T00:34:58.459Z,0.61
2019-01-24T00:37:25.950Z,0.57
2019-01-24T00:39:53.409Z,0.56
2019-01-24T00:42:21.310Z,0.55
2019-01-24T00:44:48.760Z,0.32
2019-01-24T00:47:16.232Z,0.48
2019-01-24T00:49:43.659Z,0.48
2019-01-24T00:52:11.104Z,0.44
2019-01-24T00:54:38.557Z,0.43
2019-01-24T00:57:06.008Z,0.36
2019-01-24T00:59:33.462Z,0.34
2019-01-24T01:02:00.896Z,0.36
2019-01-24T01:04:29.815Z,0.38
2019-01-24T01:06:55.866Z,0.37
2019-01-24T01:09:23.291Z,0.42
2019-01-24T01:11:50.730Z,0.46
2019-01-24T01:14:18.195Z,0.47
2019-01-24T01:16:45.638Z,0.41
2019-01-24T01:19:14.032Z,0.41
2019-01-24T01:21:41.568Z,0.49
2019-01-24T01:24:08.998Z,0.22
2019-01-24T01:26:36.460Z,0.01
2019-01-24T01:29:03.939Z,0.41
2019-01-24T01:31:31.404Z,0.35
2019-01-24T01:33:59.739Z,-0.39
2019-01-24T01:36:27.330Z,-0.11
2019-01-24T01:38:54.769Z,0.02
2019-01-24T01:41:22.311Z,0.13
2019-01-24T01:43:49.777Z,0.03
2019-01-24T01:46:17.244Z,0.13
2019-01-24T01:48:44.682Z,0.17
2019-01-24T01:51:12.154Z,0.22
2019-01-24T01:53:39.576Z,0.15
2019-01-24T01:56:07.945Z,0.12
2019-01-24T01:58:35.464Z,0.21
2019-01-24T02:01:02.908Z,0.18
2019-01-24T02:03:30.371Z,0.21
2019-01-24T02:05:57.828Z,0.24
2019-01-24T02:08:25.265Z,0.21
2019-01-24T02:10:52.996Z,0.24
2019-01-24T02:13:20.432Z,0.25
2019-01-24T02:15:47.936Z,0.31
2019-01-24T02:18:15.696Z,0.32
2019-01-24T02:20:43.142Z,0.31
2019-01-24T02:23:10.589Z,0.41
2019-01-24T02:25:38.035Z,0.30
2019-01-24T02:28:05.490Z,-0.78
2019-01-24T02:30:32.981Z,-0.06
2019-01-24T02:33:00.462Z,0.09
2019-01-24T02:35:27.887Z,0.29
2019-01-24T02:37:55.343Z,0.35
2019-01-24T02:40:24.407Z,0.41
2019-01-24T02:42:51.928Z,0.42
2019-01-24T02:45:20.153Z,0.53
2019-01-24T02:47:47.590Z,0.62
2019-01-24T02:50:16.118Z,0.68
2019-01-24T02:52:43.577Z,0.67
2019-01-24T02:55:11.015Z,0.64
2019-01-24T02:57:38.474Z,0.67
2019-01-24T03:00:06.834Z,0.47
2019-01-24T03:02:34.300Z,0.56
2019-01-24T03:05:01.728Z,0.64
2019-01-24T03:07:29.467Z,0.70
2019-01-24T03:09:56.948Z,0.79
2019-01-24T03:12:24.415Z,0.83
2019-01-24T03:14:51.831Z,0.89
2019-01-24T03:17:19.279Z,0.69
2019-01-24T03:19:46.716Z,0.69
2019-01-24T03:22:14.182Z,0.70
2019-01-24T03:24:41.646Z,0.63
2019-01-24T03:27:09.092Z,0.65
2019-01-24T03:29:36.534Z,0.71
2019-01-24T03:32:03.988Z,0.56
2019-01-24T03:34:31.474Z,0.57
2019-01-24T03:36:58.946Z,0.54
2019-01-24T03:39:26.400Z,0.51
2019-01-24T03:41:54.744Z,0.45
2019-01-24T03:44:22.202Z,0.39
2019-01-24T03:46:49.664Z,0.48
2019-01-24T03:49:17.124Z,0.55
2019-01-24T03:51:44.560Z,0.51
2019-01-24T03:54:12.027Z,0.47
2019-01-24T03:56:39.453Z,0.51
2019-01-24T03:59:06.913Z,0.50
2019-01-24T04:01:34.378Z,0.46
2019-01-24T04:04:01.836Z,0.50
2019-01-24T04:06:29.287Z,0.46
2019-01-24T04:08:56.748Z,0.48
2019-01-24T04:11:24.198Z,0.48
2019-01-24T04:13:51.683Z,0.48
2019-01-24T04:16:19.157Z,0.48
2019-01-24T04:18:46.664Z,0.37
2019-01-24T04:21:14.131Z,0.44
2019-01-24T04:23:41.585Z,0.55
2019-01-24T04:26:09.021Z,0.59
2019-01-24T04:28:38.130Z,0.49
2019-01-24T04:31:05.551Z,0.64
2019-01-24T04:33:33.003Z,0.65
2019-01-24T04:36:00.439Z,0.67
2019-01-24T04:38:27.876Z,0.46
2019-01-24T04:40:55.984Z,0.51
2019-01-24T04:43:23.431Z,0.48
2019-01-24T04:45:50.872Z,0.47
2019-01-24T04:48:18.298Z,0.52
2019-01-24T04:50:46.741Z,0.63
2019-01-24T04:53:14.268Z,0.68
2019-01-24T04:55:41.712Z,0.69
2019-01-24T04:58:09.146Z,0.75
2019-01-24T05:00:36.588Z,0.79
2019-01-24T05:03:04.054Z,0.79
2019-01-24T05:05:31.519Z,0.80
2019-01-24T05:07:58.973Z,0.83
2019-01-24T05:10:26.710Z,0.71
2019-01-24T05:12:54.207Z,0.61
2019-01-24T05:15:21.661Z,0.62
2019-01-24T05:17:49.095Z,0.46
2019-01-24T05:20:16.528Z,0.39
2019-01-24T05:22:43.987Z,0.56
2019-01-24T05:25:12.061Z,-0.37
2019-01-24T05:27:39.509Z,-0.93
2019-01-24T05:30:09.734Z,-0.72
2019-01-24T05:32:37.181Z,-0.66
2019-01-24T05:35:04.620Z,-0.23
2019-01-24T05:37:32.089Z,-0.03
2019-01-24T05:39:59.576Z,-0.45
2019-01-24T05:42:27.307Z,-0.13
2019-01-24T05:44:54.770Z,0.00
2019-01-24T05:47:22.231Z,0.06
2019-01-24T05:49:49.646Z,0.09
2019-01-24T05:52:19.554Z,0.07
2019-01-24T05:54:44.577Z,0.14
2019-01-24T05:57:12.023Z,0.22
2019-01-24T05:59:39.458Z,0.22
2019-01-24T06:02:06.899Z,0.19
2019-01-24T06:04:34.341Z,0.25
2019-01-24T06:07:01.779Z,0.22
2019-01-24T06:09:29.241Z,0.34
2019-01-24T06:11:56.693Z,0.30
2019-01-24T06:14:24.178Z,0.28
2019-01-24T06:16:51.618Z,0.44
2019-01-24T06:19:19.053Z,0.41
2019-01-24T06:21:49.411Z,0.91
2019-01-24T06:24:16.901Z,0.86
2019-01-24T06:26:44.331Z,0.77
2019-01-24T06:29:11.767Z,0.65
2019-01-24T06:31:39.234Z,0.62
2019-01-24T06:34:06.686Z,0.48
2019-01-24T06:36:34.143Z,0.59
2019-01-24T06:39:01.580Z,0.62
2019-01-24T06:41:29.115Z,0.69
2019-01-24T06:43:56.566Z,-0.42
2019-01-24T06:46:24.004Z,-0.01
2019-01-24T06:48:51.466Z,0.32
2019-01-24T06:51:18.903Z,0.44
2019-01-24T06:53:46.335Z,0.46
2019-01-24T06:56:13.791Z,0.36
2019-01-24T06:58:41.217Z,0.30
2019-01-24T07:01:08.680Z,0.35
2019-01-24T07:03:36.123Z,0.52
2019-01-24T07:06:03.831Z,0.51
2019-01-24T07:08:31.277Z,0.55
2019-01-24T07:10:58.711Z,0.31
2019-01-24T07:13:26.211Z,0.35
2019-01-24T07:15:53.675Z,0.14
2019-01-24T07:18:21.116Z,0.44
2019-01-24T07:20:48.574Z,0.50
2019-01-24T07:23:16.006Z,0.49
2019-01-24T07:25:43.446Z,0.50
2019-01-24T07:28:10.900Z,0.49
2019-01-24T07:30:38.364Z,-1.06
2019-01-24T07:33:05.825Z,-0.66
2019-01-24T07:35:33.291Z,-0.31
2019-01-24T07:38:00.738Z,-0.01
2019-01-24T07:40:28.217Z,-0.83
2019-01-24T07:42:55.647Z,-0.84
2019-01-24T07:45:26.426Z,-0.84
2019-01-24T07:47:53.884Z,-0.71
2019-01-24T07:50:21.965Z,-0.73
2019-01-24T07:52:49.450Z,-0.49
2019-01-24T07:55:16.911Z,-0.61
2019-01-24T07:57:44.354Z,-0.76
2019-01-24T08:00:16.402Z,-0.66
2019-01-24T08:02:43.855Z,-1.16
2019-01-24T08:05:11.283Z,-0.72
2019-01-24T08:07:38.741Z,-0.75
2019-01-24T08:10:08.695Z,-0.52
2019-01-24T08:12:36.158Z,-0.67
2019-01-24T08:15:03.675Z,-0.64
2019-01-24T08:17:31.122Z,-1.26
2019-01-24T08:19:58.543Z,-1.01
2019-01-24T08:22:25.996Z,-0.69
2019-01-24T08:24:53.597Z,-0.35
2019-01-24T08:27:21.039Z,-1.23
2019-01-24T08:29:48.507Z,-1.41
2019-01-24T08:32:15.931Z,-1.07
2019-01-24T08:34:43.370Z,-1.18
2019-01-24T08:37:10.810Z,-0.74
2019-01-24T08:39:38.305Z,-1.06
2019-01-24T08:42:05.839Z,-0.63
2019-01-24T08:44:33.299Z,-1.22
2019-01-24T08:47:00.761Z,-1.71
2019-01-24T08:49:28.184Z,-1.39
2019-01-24T08:51:55.639Z,-1.32
2019-01-24T08:54:23.062Z,-1.01
2019-01-24T08:56:50.525Z,-0.72
2019-01-24T08:59:17.964Z,-0.48
2019-01-24T09:01:45.442Z,-0.36
2019-01-24T09:04:12.892Z,-0.65
2019-01-24T09:06:40.342Z,-0.71
2019-01-24T09:09:08.748Z,-0.92
2019-01-24T09:11:36.301Z,-0.49
2019-01-24T09:14:03.760Z,-0.56
2019-01-24T09:16:31.187Z,-1.43
2019-01-24T09:18:58.645Z,-0.98
2019-01-24T09:21:26.089Z,-0.74
2019-01-24T09:23:53.561Z,-0.59
2019-01-24T09:26:21.006Z,-0.29
2019-01-24T09:28:48.485Z,-0.26
2019-01-24T09:31:16.678Z,-0.13
2019-01-24T09:33:44.129Z,-0.06
2019-01-24T09:36:11.602Z,-0.02
2019-01-24T09:38:39.047Z,0.07
2019-01-24T09:41:06.877Z,0.05
2019-01-24T09:43:34.326Z,0.00
2019-01-24T09:46:01.782Z,0.11
2019-01-24T09:48:29.233Z,0.13
2019-01-24T09:50:56.729Z,0.23
2019-01-24T09:53:24.209Z,0.27
2019-01-24T09:55:51.670Z,0.23
2019-01-24T09:58:19.102Z,0.26
2019-01-24T10:00:46.551Z,0.22
2019-01-24T10:03:13.993Z,0.23
2019-01-24T10:05:41.460Z,0.29
2019-01-24T10:08:08.924Z,0.27
2019-01-24T10:10:36.359Z,0.30
2019-01-24T10:13:03.871Z,0.31
2019-01-24T10:15:31.307Z,-0.13
2019-01-24T10:17:58.752Z,-0.04
2019-01-24T10:20:26.186Z,0.01
2019-01-24T10:22:53.641Z,0.16
2019-01-24T10:25:21.072Z,0.23
2019-01-24T10:27:48.527Z,0.24
2019-01-24T10:30:15.989Z,0.26
2019-01-24T10:32:43.481Z,0.44
2019-01-24T10:35:10.934Z,-0.14
2019-01-24T10:37:38.355Z,0.11
2019-01-24T10:40:05.826Z,0.25
2019-01-24T10:42:33.269Z,-0.57
2019-01-24T10:45:00.737Z,-0.76
2019-01-24T10:47:28.187Z,-0.47
2019-01-24T10:49:55.649Z,-0.09
2019-01-24T10:52:23.072Z,-0.07
2019-01-24T10:54:50.581Z,0.04
2019-01-24T10:57:18.029Z,0.13
2019-01-24T10:59:45.465Z,0.26
2019-01-24T11:02:12.920Z,0.27
2019-01-24T11:04:40.342Z,0.34
2019-01-24T11:07:08.459Z,0.42
2019-01-24T11:09:35.901Z,0.44
2019-01-24T11:12:03.351Z,0.19
2019-01-24T11:14:30.799Z,-0.53
2019-01-24T11:16:58.270Z,-0.41
2019-01-24T11:19:25.713Z,-0.56
2019-01-24T11:21:53.187Z,-0.47
2019-01-24T11:24:20.629Z,-0.69
2019-01-24T11:26:48.059Z,-1.13
2019-01-24T11:29:15.544Z,-1.27
2019-01-24T11:31:42.984Z,-1.38
2019-01-24T11:34:10.438Z,-1.80
2019-01-24T11:36:37.894Z,-1.55
2019-01-24T11:39:05.378Z,-1.95
2019-01-24T11:41:32.852Z,-1.18
2019-01-24T11:44:00.278Z,-0.77
2019-01-24T11:49:20.854Z,-1.18
2019-01-24T11:51:48.293Z,-0.70
2019-01-24T11:54:15.723Z,-0.35
2019-01-24T11:56:43.182Z,-0.65
2019-01-24T11:59:10.632Z,-0.33
2019-01-24T12:01:38.433Z,-0.72
2019-01-24T12:04:05.868Z,-0.74
2019-01-24T12:06:33.349Z,-1.41
2019-01-24T12:09:00.793Z,-0.97
2019-01-24T12:11:28.231Z,-1.29
2019-01-24T12:13:55.707Z,-1.64
2019-01-24T12:16:23.202Z,-1.47
2019-01-24T12:18:50.636Z,-1.28
2019-01-24T12:21:18.092Z,-1.06
2019-01-24T12:23:45.580Z,-0.64
2019-01-24T12:26:13.063Z,-1.14
2019-01-24T12:28:40.515Z,-1.17
2019-01-24T12:31:07.971Z,-0.83
2019-01-24T12:33:35.428Z,-0.56
2019-01-24T12:36:02.868Z,-0.47
2019-01-24T12:38:30.419Z,-0.62
2019-01-24T12:40:57.880Z,-0.54
2019-01-24T12:43:25.349Z,-1.09
2019-01-24T12:45:52.827Z,-1.56
2019-01-24T12:48:20.342Z,-1.45
2019-01-24T12:50:47.782Z,-1.43
2019-01-24T12:53:15.229Z,-1.33
2019-01-24T12:55:42.662Z,-0.94
2019-01-24T12:58:10.129Z,-1.39
2019-01-24T13:00:37.582Z,-1.64
2019-01-24T13:03:05.034Z,-1.56
2019-01-24T13:05:33.011Z,-0.85
2019-01-24T13:08:00.889Z,-0.51
2019-01-24T13:10:28.357Z,-0.83
2019-01-24T13:12:55.809Z,-1.09
2019-01-24T13:15:26.068Z,-1.06
2019-01-24T13:17:53.548Z,-0.87
2019-01-24T13:20:20.980Z,-0.50
2019-01-24T13:22:48.433Z,-0.24
2019-01-24T13:25:17.546Z,-0.57
2019-01-24T13:27:46.029Z,-0.70
2019-01-24T13:30:24.034Z,-1.07
2019-01-24T13:32:51.573Z,-0.73
2019-01-24T13:35:19.018Z,-0.80
2019-01-24T13:37:46.475Z,0.53
2019-01-24T13:40:13.915Z,0.52
2019-01-24T13:42:41.378Z,0.85
2019-01-24T13:45:09.526Z,0.71
2019-01-24T13:47:36.981Z,0.45
2019-01-24T13:50:04.442Z,0.70
2019-01-24T13:52:32.737Z,0.07
2019-01-24T13:55:00.278Z,-0.40
2019-01-24T13:57:27.729Z,0.12
2019-01-24T13:59:55.228Z,-0.11
2019-01-24T14:02:22.704Z,-0.14
2019-01-24T14:04:50.147Z,-0.43
2019-01-24T14:07:17.621Z,-0.59
2019-01-24T14:09:45.076Z,-0.17
2019-01-24T14:12:12.532Z,-1.15
2019-01-24T14:14:39.988Z,-1.20
2019-01-24T14:17:07.479Z,-1.40
2019-01-24T14:19:34.937Z,-1.51
2019-01-24T14:22:02.385Z,-1.41
2019-01-24T14:24:29.917Z,-0.91
2019-01-24T14:26:57.375Z,-0.74
2019-01-24T14:29:24.846Z,-0.46
2019-01-24T14:31:52.321Z,-0.27
2019-01-24T14:34:19.754Z,-1.17
2019-01-24T14:36:47.227Z,-0.60
2019-01-24T14:39:14.683Z,-0.85
2019-01-24T14:41:42.110Z,-1.07
2019-01-24T14:44:09.556Z,-0.76
2019-01-24T14:46:36.982Z,-0.54
2019-01-24T14:49:04.464Z,-0.96
2019-01-24T14:51:32.805Z,-1.06
2019-01-24T14:54:00.369Z,-1.05
2019-01-24T14:56:27.796Z,-0.90
2019-01-24T14:58:55.222Z,-1.02
2019-01-24T15:01:22.664Z,-0.68
2019-01-24T15:03:50.400Z,-0.28
2019-01-24T15:06:17.871Z,-0.55
2019-01-24T15:08:45.318Z,-0.07
2019-01-24T15:11:12.787Z,0.07
2019-01-24T15:13:40.214Z,-0.22
2019-01-24T15:16:07.745Z,0.13
2019-01-24T15:18:35.184Z,-0.07
2019-01-24T15:21:03.616Z,-0.73
2019-01-24T15:23:31.070Z,-0.24
2019-01-24T15:25:58.519Z,-0.41
2019-01-24T15:28:25.985Z,-0.25
2019-01-24T15:30:53.482Z,-0.11
2019-01-24T15:33:20.921Z,-0.22
2019-01-24T15:35:48.444Z,-0.10
2019-01-24T15:38:15.926Z,-0.15
2019-01-24T15:40:43.381Z,-0.74
2019-01-24T15:43:10.839Z,-0.75
2019-01-24T15:45:38.280Z,-0.30
2019-01-24T15:48:05.745Z,-0.13
2019-01-24T15:50:34.147Z,-1.09
2019-01-24T15:53:01.596Z,-0.82
2019-01-24T15:55:29.060Z,-0.82
2019-01-24T15:57:56.511Z,-0.80
2019-01-24T16:00:26.534Z,-0.86
2019-01-24T16:02:53.994Z,-0.90
2019-01-24T16:05:21.508Z,-0.92
2019-01-24T16:07:48.921Z,-0.88
2019-01-24T16:10:16.395Z,-0.93
2019-01-24T16:12:43.826Z,-0.92
2019-01-24T16:15:13.809Z,-1.00
2019-01-24T16:17:41.278Z,-0.58
2019-01-24T16:20:09.474Z,-0.43
2019-01-24T16:22:36.918Z,-0.53
2019-01-24T16:25:05.590Z,-0.69
2019-01-24T16:27:33.043Z,-0.43
2019-01-24T16:30:00.497Z,-0.66
2019-01-24T16:32:27.947Z,-0.90
2019-01-24T16:34:55.412Z,-0.75
2019-01-24T16:37:22.866Z,-0.70
2019-01-24T16:39:50.307Z,-0.55
2019-01-24T16:42:17.757Z,-0.42
2019-01-24T16:44:45.182Z,-0.37
2019-01-24T16:47:12.710Z,-0.31
2019-01-24T16:49:40.154Z,-0.60
2019-01-24T16:52:07.602Z,-0.43
2019-01-24T16:54:35.311Z,-0.65
2019-01-24T16:57:02.777Z,-0.57
2019-01-24T16:59:30.326Z,-0.95
2019-01-24T17:01:57.744Z,-1.30
2019-01-24T17:04:25.163Z,-0.73
2019-01-24T17:06:52.610Z,-0.44
2019-01-24T17:09:20.068Z,-0.76
2019-01-24T17:11:47.573Z,-1.00
2019-01-24T17:14:22.129Z,-1.24
2019-01-24T17:16:43.098Z,-0.93
2019-01-24T17:19:10.553Z,-1.19
2019-01-24T17:21:37.996Z,-0.64
2019-01-24T17:24:05.856Z,-0.34
2019-01-24T17:26:33.294Z,-0.09
2019-01-24T17:29:00.740Z,-0.69
2019-01-24T17:31:28.322Z,-0.95
2019-01-24T17:33:55.788Z,-0.63
2019-01-24T17:36:23.291Z,-1.42
2019-01-24T17:38:50.738Z,-0.79
2019-01-24T17:41:18.173Z,-0.42
2019-01-24T17:43:45.643Z,-0.23
2019-01-24T17:46:13.115Z,-0.07
2019-01-24T17:48:40.540Z,-0.60
2019-01-24T17:51:07.997Z,-0.58
2019-01-24T17:53:35.434Z,-0.27
2019-01-24T17:56:02.890Z,-0.25
2019-01-24T17:58:30.329Z,-1.08
2019-01-24T18:00:57.791Z,-1.03
2019-01-24T18:03:25.230Z,-0.69
2019-01-24T18:05:52.690Z,-0.32
2019-01-24T18:08:20.118Z,-0.50
2019-01-24T18:10:47.594Z,-0.83
2019-01-24T18:13:15.031Z,-0.69
2019-01-24T18:15:42.493Z,-1.09
2019-01-24T18:18:10.857Z,-1.33
2019-01-24T18:20:38.313Z,-0.88
2019-01-24T18:23:05.754Z,-1.40
2019-01-24T18:25:33.275Z,-0.74
2019-01-24T18:28:00.728Z,-0.33
2019-01-24T18:30:28.192Z,-0.51
2019-01-24T18:32:55.773Z,-0.76
2019-01-24T18:35:23.245Z,-0.78
2019-01-24T18:37:50.690Z,-1.06
2019-01-24T18:40:18.147Z,-1.51
2019-01-24T18:42:46.298Z,-0.97
2019-01-24T18:45:14.657Z,-0.53
2019-01-24T18:47:42.122Z,-0.35
2019-01-24T18:50:10.477Z,-0.45
2019-01-24T18:52:37.932Z,-0.29
2019-01-24T18:55:05.406Z,-0.05
2019-01-24T18:57:32.836Z,0.06
2019-01-24T19:00:00.269Z,0.16
2019-01-24T19:02:27.734Z,-0.05
2019-01-24T19:04:55.215Z,-0.16
2019-01-24T19:07:22.769Z,-0.30
2019-01-24T19:09:50.235Z,-0.25
2019-01-24T19:12:17.720Z,-0.45
2019-01-24T19:14:45.197Z,-0.34
2019-01-24T19:17:12.659Z,-0.73
2019-01-24T19:19:40.134Z,-0.23
2019-01-24T19:22:08.148Z,-0.07
2019-01-24T19:24:35.616Z,-0.29
2019-01-24T19:27:03.071Z,-0.33
2019-01-24T19:29:30.533Z,-0.34
2019-01-24T19:31:57.970Z,-0.07
2019-01-24T19:34:25.471Z,-0.85
2019-01-24T19:36:53.018Z,-0.62
2019-01-24T19:39:20.479Z,-0.65
2019-01-24T19:41:47.905Z,-0.22
2019-01-24T19:44:16.016Z,-0.01
2019-01-24T19:46:43.050Z,-0.41
2019-01-24T19:49:11.511Z,-0.57
2019-01-24T19:51:38.960Z,-1.35
2019-01-24T19:54:06.459Z,-1.45
2019-01-24T19:56:33.917Z,-0.86
2019-01-24T19:59:01.379Z,-0.51
2019-01-24T20:01:28.818Z,-0.31
2019-01-24T20:03:56.306Z,-0.38
2019-01-24T20:06:23.776Z,-0.41
2019-01-24T20:08:51.227Z,-0.22
2019-01-24T20:11:20.220Z,-0.21
2019-01-24T20:13:47.743Z,0.04
2019-01-24T20:16:15.601Z,0.15
2019-01-24T20:18:43.088Z,0.14
2019-01-24T20:21:10.569Z,0.35
2019-01-24T20:23:38.074Z,-0.21
2019-01-24T20:26:05.535Z,0.00
2019-01-24T20:28:33.040Z,-0.59
2019-01-24T20:31:00.550Z,-0.40
2019-01-24T20:33:29.110Z,-0.45
2019-01-24T20:35:56.688Z,0.05
2019-01-24T20:38:24.155Z,0.26
2019-01-24T20:40:51.681Z,0.33
2019-01-24T20:43:19.190Z,-0.13
2019-01-24T20:45:46.696Z,-0.77
2019-01-24T20:48:14.263Z,-0.52
2019-01-24T20:50:41.773Z,-0.12
2019-01-24T20:53:09.886Z,-0.14
2019-01-24T20:55:37.375Z,-0.08
2019-01-24T20:58:06.453Z,-0.76
2019-01-24T21:00:34.078Z,-1.33
2019-01-24T21:03:01.563Z,-0.89
2019-01-24T21:05:29.056Z,-0.94
2019-01-24T21:07:56.535Z,-0.62
2019-01-24T21:10:32.004Z,-0.45
2019-01-24T21:12:59.589Z,-0.16
2019-01-24T21:15:27.070Z,-0.70
2019-01-24T21:17:54.850Z,-0.29
2019-01-24T21:20:23.110Z,-0.03
2019-01-24T21:22:50.783Z,0.05
2019-01-24T21:25:18.338Z,0.09
2019-01-24T21:27:46.740Z,0.26
2019-01-24T21:30:15.820Z,0.31
2019-01-24T21:32:43.892Z,0.39
2019-01-24T21:35:11.386Z,0.47
2019-01-24T21:37:38.959Z,0.47
2019-01-24T21:40:07.445Z,0.43
2019-01-24T21:42:35.009Z,0.46
2019-01-24T21:45:02.470Z,0.56
2019-01-24T21:47:29.967Z,0.60
2019-01-24T21:49:57.463Z,0.65
2019-01-24T21:52:25.107Z,0.69
2019-01-24T21:54:52.576Z,0.63
2019-01-24T21:57:20.762Z,0.65
2019-01-24T21:59:48.580Z,0.60
2019-01-24T22:02:16.342Z,0.59
2019-01-24T22:04:43.811Z,0.60
2019-01-24T22:07:11.305Z,0.60
2019-01-24T22:09:38.861Z,0.60
2019-01-24T22:12:06.475Z,0.69
2019-01-24T22:14:34.052Z,0.70
2019-01-24T22:17:02.923Z,0.68
2019-01-24T22:19:30.666Z,0.65
2019-01-24T22:21:58.171Z,0.68
2019-01-24T22:24:25.716Z,0.61
2019-01-24T22:26:53.250Z,0.64
2019-01-24T22:29:20.742Z,0.65
2019-01-24T22:31:48.219Z,0.73
2019-01-24T22:34:15.719Z,0.79
2019-01-24T22:36:43.163Z,0.79
2019-01-24T22:39:10.652Z,0.84
2019-01-24T22:41:38.237Z,0.83
2019-01-24T22:44:06.672Z,0.82
2019-01-24T22:46:34.257Z,0.28
2019-01-24T22:49:01.707Z,0.62
2019-01-24T22:51:29.198Z,0.72
2019-01-24T22:53:56.665Z,0.81
2019-01-24T22:56:24.169Z,0.87
2019-01-24T22:58:51.617Z,0.77
2019-01-24T23:01:24.948Z,0.55
2019-01-24T23:03:52.434Z,0.37
2019-01-24T23:06:19.912Z,0.07
2019-01-24T23:08:47.592Z,-0.35
2019-01-24T23:11:15.774Z,-0.08
2019-01-24T23:13:43.332Z,-0.01
2019-01-24T23:16:10.964Z,0.26
2019-01-24T23:18:38.539Z,0.30
2019-01-24T23:21:06.021Z,0.41
2019-01-24T23:23:33.515Z,0.43
2019-01-24T23:26:00.995Z,0.50
2019-01-24T23:28:28.471Z,0.43
2019-01-24T23:30:55.939Z,0.50
2019-01-24T23:33:23.405Z,0.49
2019-01-24T23:35:50.896Z,0.58
2019-01-24T23:38:18.564Z,0.56
2019-01-24T23:40:46.281Z,0.53
2019-01-24T23:43:13.751Z,0.59
2019-01-24T23:45:41.227Z,0.65
2019-01-24T23:48:08.771Z,0.71
2019-01-24T23:50:36.364Z,0.69
2019-01-24T23:53:04.064Z,0.73
2019-01-24T23:55:31.597Z,0.74
2019-01-24T23:57:59.062Z,0.69
